createdAt,value
2022-10-30T00:00:28.064Z,15.13
2022-10-30T00:03:19.366Z,15.18
2022-10-30T00:05:51.718Z,15.18
2022-10-30T00:08:23.105Z,14.99
2022-10-30T00:10:52.847Z,14.99
2022-10-30T00:13:23.235Z,14.95
2022-10-30T00:15:54.113Z,14.86
2022-10-30T00:18:24.945Z,14.76
2022-10-30T00:20:54.252Z,14.74
2022-10-30T00:23:23.617Z,14.49
2022-10-30T00:25:53.039Z,14.52
2022-10-30T00:28:22.343Z,14.59
2022-10-30T00:30:51.888Z,14.58
2022-10-30T00:33:21.072Z,14.60
2022-10-30T00:35:52.414Z,14.47
2022-10-30T00:38:21.999Z,14.41
2022-10-30T00:40:51.711Z,14.40
2022-10-30T00:43:36.815Z,14.29
2022-10-30T00:46:15.010Z,14.36
2022-10-30T00:48:46.920Z,14.25
2022-10-30T00:51:18.194Z,14.21
2022-10-30T00:53:49.100Z,14.46
2022-10-30T00:56:22.239Z,14.42
2022-10-30T00:58:55.577Z,14.52
2022-10-30T01:01:28.466Z,14.50
2022-10-30T01:04:01.571Z,14.50
2022-10-30T01:06:36.999Z,14.53
2022-10-30T01:09:07.029Z,14.53
2022-10-30T01:11:36.867Z,14.49
2022-10-30T01:14:09.811Z,14.46
2022-10-30T01:16:59.007Z,14.38
2022-10-30T01:19:41.054Z,14.43
2022-10-30T01:22:25.078Z,14.44
2022-10-30T01:25:04.810Z,14.24
2022-10-30T01:27:46.273Z,14.44
2022-10-30T01:30:34.438Z,14.36
2022-10-30T01:33:17.652Z,14.35
2022-10-30T01:35:53.902Z,14.51
2022-10-30T01:38:29.419Z,14.46
2022-10-30T01:40:58.940Z,14.47
2022-10-30T01:43:29.130Z,14.49
2022-10-30T01:46:26.420Z,14.52
2022-10-30T01:49:17.379Z,14.51
2022-10-30T01:51:58.507Z,14.52
2022-10-30T01:54:40.341Z,14.49
2022-10-30T01:57:19.416Z,14.45
2022-10-30T01:59:56.936Z,14.27
2022-10-30T02:02:26.458Z,14.32
2022-10-30T02:04:57.775Z,14.33
2022-10-30T02:07:27.278Z,14.35
2022-10-30T02:09:58.203Z,14.32
2022-10-30T02:12:30.763Z,14.28
2022-10-30T02:15:03.028Z,14.38
2022-10-30T02:17:32.457Z,14.20
2022-10-30T02:20:01.796Z,14.21
2022-10-30T02:22:33.682Z,14.25
2022-10-30T02:25:03.417Z,14.29
2022-10-30T02:27:32.659Z,14.21
2022-10-30T02:30:02.078Z,14.16
2022-10-30T02:32:31.716Z,14.15
2022-10-30T02:35:01.117Z,14.01
2022-10-30T02:37:32.793Z,13.89
2022-10-30T02:40:02.350Z,13.81
2022-10-30T02:42:31.908Z,13.78
2022-10-30T02:45:01.110Z,13.74
2022-10-30T02:47:31.241Z,13.81
2022-10-30T02:50:00.572Z,13.77
2022-10-30T02:52:29.784Z,13.81
2022-10-30T02:55:00.774Z,13.74
2022-10-30T02:57:32.056Z,13.55
2022-10-30T03:00:01.781Z,13.56
2022-10-30T03:02:32.961Z,13.30
2022-10-30T03:05:02.975Z,13.20
2022-10-30T03:07:32.316Z,13.27
2022-10-30T03:10:02.958Z,13.28
2022-10-30T03:12:33.867Z,13.24
2022-10-30T03:15:03.100Z,13.08
2022-10-30T03:17:32.640Z,13.19
2022-10-30T03:20:02.893Z,13.13
2022-10-30T03:22:32.077Z,13.22
2022-10-30T03:25:04.547Z,13.30
2022-10-30T03:27:35.825Z,13.28
2022-10-30T03:35:29.091Z,12.99
2022-10-30T03:37:58.704Z,13.05
2022-10-30T03:40:29.307Z,13.11
2022-10-30T03:42:58.943Z,13.05
2022-10-30T03:45:28.525Z,12.94
2022-10-30T03:47:58.151Z,12.71
2022-10-30T03:50:27.897Z,12.55
2022-10-30T03:52:57.810Z,12.49
2022-10-30T03:55:28.886Z,12.35
2022-10-30T03:57:58.997Z,12.16
2022-10-30T04:00:28.643Z,11.91
2022-10-30T04:03:01.762Z,11.95
2022-10-30T04:05:33.746Z,11.86
2022-10-30T04:08:08.692Z,11.82
2022-10-30T04:10:44.366Z,11.86
2022-10-30T04:13:17.589Z,11.95
2022-10-30T04:15:57.884Z,11.88
2022-10-30T04:18:28.905Z,11.73
2022-10-30T04:21:01.296Z,11.65
2022-10-30T04:23:31.051Z,11.73
2022-10-30T04:26:03.849Z,11.69
2022-10-30T04:28:33.881Z,11.55
2022-10-30T04:31:03.594Z,11.48
2022-10-30T04:33:33.709Z,11.58
2022-10-30T04:36:03.501Z,11.44
2022-10-30T04:38:34.410Z,11.31
2022-10-30T04:41:07.141Z,11.35
2022-10-30T04:43:56.264Z,11.42
2022-10-30T04:46:25.983Z,11.42
2022-10-30T04:48:57.959Z,11.34
2022-10-30T04:51:27.558Z,11.30
2022-10-30T04:53:57.036Z,11.37
2022-10-30T04:56:27.751Z,11.40
2022-10-30T04:58:57.343Z,11.31
2022-10-30T05:01:26.826Z,11.30
2022-10-30T05:03:59.095Z,11.32
2022-10-30T05:06:31.545Z,11.24
2022-10-30T05:09:01.079Z,11.19
2022-10-30T05:11:37.191Z,11.25
2022-10-30T05:14:06.510Z,11.16
2022-10-30T05:16:36.069Z,11.07
2022-10-30T05:19:07.396Z,11.03
2022-10-30T05:21:37.701Z,10.98
2022-10-30T05:24:08.634Z,10.84
2022-10-30T05:26:46.241Z,10.71
2022-10-30T05:29:15.819Z,10.69
2022-10-30T05:31:45.389Z,10.77
2022-10-30T05:34:38.242Z,10.78
2022-10-30T05:37:07.778Z,10.86
2022-10-30T05:39:38.802Z,11.05
2022-10-30T05:42:17.382Z,10.96
2022-10-30T05:45:00.292Z,10.92
2022-10-30T05:47:32.002Z,11.09
2022-10-30T05:50:01.297Z,11.24
2022-10-30T05:52:31.329Z,11.28
2022-10-30T05:55:02.370Z,11.39
2022-10-30T05:57:59.257Z,11.46
2022-10-30T06:00:29.643Z,11.50
2022-10-30T06:03:03.122Z,11.70
2022-10-30T06:05:35.719Z,11.62
2022-10-30T06:08:05.981Z,11.80
2022-10-30T06:10:36.951Z,11.93
2022-10-30T06:13:16.953Z,11.98
2022-10-30T06:15:59.357Z,11.87
2022-10-30T06:18:38.232Z,11.91
2022-10-30T06:21:12.610Z,11.92
2022-10-30T06:24:08.035Z,12.22
2022-10-30T06:27:03.450Z,12.32
2022-10-30T06:29:34.407Z,12.38
2022-10-30T06:32:06.564Z,12.54
2022-10-30T06:34:36.753Z,12.31
2022-10-30T06:37:06.564Z,12.27
2022-10-30T06:39:36.032Z,12.41
2022-10-30T06:42:22.485Z,12.58
2022-10-30T06:45:11.015Z,12.86
2022-10-30T06:47:40.573Z,12.93
2022-10-30T06:50:12.411Z,12.91
2022-10-30T06:52:42.304Z,12.98
2022-10-30T06:55:12.340Z,13.09
2022-10-30T06:58:02.257Z,13.08
2022-10-30T07:01:01.014Z,13.26
2022-10-30T07:03:37.229Z,13.44
2022-10-30T07:06:07.199Z,13.53
2022-10-30T07:08:37.073Z,13.58
2022-10-30T07:11:06.992Z,13.62
2022-10-30T07:13:56.509Z,13.68
2022-10-30T07:16:39.321Z,13.64
2022-10-30T07:19:08.663Z,13.69
2022-10-30T07:21:38.346Z,13.91
2022-10-30T07:24:09.569Z,13.96
2022-10-30T07:26:52.047Z,13.95
2022-10-30T07:29:34.248Z,14.01
2022-10-30T07:32:24.540Z,14.11
2022-10-30T07:35:14.893Z,14.22
2022-10-30T07:38:12.971Z,14.16
2022-10-30T07:40:54.711Z,14.08
2022-10-30T07:43:46.270Z,14.27
2022-10-30T07:46:50.945Z,14.16
2022-10-30T07:49:47.837Z,14.49
2022-10-30T07:52:17.757Z,14.82
2022-10-30T07:54:50.639Z,14.90
2022-10-30T07:57:43.986Z,14.87
2022-10-30T08:00:42.681Z,14.75
2022-10-30T08:03:22.288Z,14.76
2022-10-30T08:06:21.642Z,15.12
2022-10-30T08:08:54.201Z,15.52
2022-10-30T08:11:31.237Z,16.05
2022-10-30T08:14:02.415Z,16.25
2022-10-30T08:16:32.263Z,16.24
2022-10-30T08:19:01.629Z,16.42
2022-10-30T08:21:33.382Z,16.02
2022-10-30T08:24:09.129Z,16.31
2022-10-30T08:26:38.874Z,16.42
2022-10-30T08:29:08.371Z,16.07
2022-10-30T08:31:38.027Z,16.38
2022-10-30T08:34:32.505Z,16.72
2022-10-30T08:37:08.161Z,16.57
2022-10-30T08:39:37.864Z,16.94
2022-10-30T08:42:27.487Z,16.80
2022-10-30T08:44:59.554Z,17.07
2022-10-30T08:47:47.702Z,17.10
2022-10-30T08:50:17.477Z,17.11
2022-10-30T08:52:50.903Z,17.20
2022-10-30T08:55:23.582Z,17.03
2022-10-30T08:57:53.018Z,17.27
2022-10-30T09:00:22.549Z,17.39
2022-10-30T09:03:29.856Z,17.07
2022-10-30T09:06:33.441Z,16.50
2022-10-30T09:09:39.579Z,17.12
2022-10-30T09:12:09.878Z,16.83
2022-10-30T09:14:46.162Z,17.04
2022-10-30T09:17:15.708Z,17.14
2022-10-30T09:22:31.933Z,17.11
2022-10-30T09:25:02.919Z,17.15
2022-10-30T09:27:48.907Z,17.13
2022-10-30T09:30:20.597Z,17.17
2022-10-30T09:32:58.717Z,17.33
2022-10-30T09:35:48.527Z,17.23
2022-10-30T09:38:17.805Z,17.31
2022-10-30T09:41:10.553Z,17.36
2022-10-30T09:43:52.363Z,17.47
2022-10-30T09:46:34.288Z,17.47
2022-10-30T09:49:34.368Z,17.64
2022-10-30T09:52:23.537Z,17.79
2022-10-30T09:55:16.481Z,17.91
2022-10-30T09:57:56.363Z,17.93
2022-10-30T10:00:32.190Z,18.32
2022-10-30T10:03:18.116Z,17.90
2022-10-30T10:06:14.028Z,18.14
2022-10-30T10:09:00.532Z,18.09
2022-10-30T10:11:54.810Z,17.88
2022-10-30T10:14:29.379Z,17.78
2022-10-30T10:17:02.328Z,18.01
2022-10-30T10:19:37.149Z,17.62
2022-10-30T10:22:14.922Z,17.54
2022-10-30T10:24:47.692Z,17.48
2022-10-30T10:27:27.902Z,17.78
2022-10-30T10:30:05.907Z,17.64
2022-10-30T10:32:58.701Z,17.62
2022-10-30T10:35:54.757Z,17.80
2022-10-30T10:38:38.231Z,17.81
2022-10-30T10:41:20.002Z,17.63
2022-10-30T10:44:05.178Z,17.66
2022-10-30T10:47:07.211Z,17.59
2022-10-30T10:49:58.253Z,17.48
2022-10-30T10:52:37.031Z,17.30
2022-10-30T10:55:11.718Z,17.37
2022-10-30T10:57:43.518Z,17.45
2022-10-30T11:00:18.866Z,17.57
2022-10-30T11:02:58.657Z,17.43
2022-10-30T11:05:34.895Z,17.55
2022-10-30T11:08:13.472Z,17.41
2022-10-30T11:10:42.861Z,17.54
2022-10-30T11:13:14.683Z,17.77
2022-10-30T11:15:56.502Z,17.58
2022-10-30T11:18:27.518Z,17.49
2022-10-30T11:21:02.549Z,17.63
2022-10-30T11:23:40.983Z,17.80
2022-10-30T11:26:29.610Z,17.79
2022-10-30T11:29:03.899Z,17.99
2022-10-30T11:31:40.219Z,18.33
2022-10-30T11:34:30.085Z,18.45
2022-10-30T11:36:59.380Z,18.41
2022-10-30T11:39:30.796Z,18.36
2022-10-30T11:42:04.763Z,18.44
2022-10-30T11:44:37.896Z,18.56
2022-10-30T11:47:08.747Z,18.22
2022-10-30T11:49:46.028Z,18.11
2022-10-30T11:52:19.276Z,18.02
2022-10-30T11:54:53.371Z,17.93
2022-10-30T11:57:32.662Z,17.71
2022-10-30T12:00:05.673Z,17.78
2022-10-30T12:02:44.373Z,17.76
2022-10-30T12:05:36.473Z,17.75
2022-10-30T12:08:20.643Z,17.94
2022-10-30T12:11:01.829Z,17.50
2022-10-30T12:13:40.481Z,17.45
2022-10-30T12:16:16.743Z,17.78
2022-10-30T12:19:00.860Z,17.86
2022-10-30T12:21:38.040Z,17.72
2022-10-30T12:24:14.819Z,17.74
2022-10-30T12:26:49.955Z,17.85
2022-10-30T12:29:22.224Z,18.02
2022-10-30T12:31:58.212Z,18.11
2022-10-30T12:34:35.197Z,18.09
2022-10-30T12:37:12.999Z,18.27
2022-10-30T12:39:57.722Z,18.18
2022-10-30T12:42:28.167Z,17.90
2022-10-30T12:45:09.025Z,18.03
2022-10-30T12:47:44.381Z,17.87
2022-10-30T12:50:22.093Z,17.80
2022-10-30T12:53:01.719Z,17.74
2022-10-30T12:55:38.244Z,17.91
2022-10-30T12:58:20.078Z,17.80
2022-10-30T13:00:56.024Z,17.73
2022-10-30T13:03:30.878Z,17.64
2022-10-30T13:06:04.479Z,17.52
2022-10-30T13:08:39.996Z,17.56
2022-10-30T13:11:13.551Z,17.74
2022-10-30T13:13:46.106Z,17.70
2022-10-30T13:16:20.456Z,17.72
2022-10-30T13:18:50.136Z,17.67
2022-10-30T13:21:26.490Z,17.62
2022-10-30T13:24:03.269Z,17.50
2022-10-30T13:26:40.574Z,17.57
2022-10-30T13:29:23.210Z,17.43
2022-10-30T13:32:07.825Z,17.41
2022-10-30T13:34:47.026Z,17.47
2022-10-30T13:37:23.370Z,17.47
2022-10-30T13:40:06.618Z,17.58
2022-10-30T13:42:52.046Z,17.85
2022-10-30T13:45:52.430Z,17.96
2022-10-30T13:48:31.588Z,17.62
2022-10-30T13:51:23.932Z,17.71
2022-10-30T13:54:02.964Z,17.60
2022-10-30T13:56:34.797Z,17.81
2022-10-30T13:59:15.682Z,17.84
2022-10-30T14:01:55.306Z,17.83
2022-10-30T14:04:35.167Z,17.59
2022-10-30T14:07:20.182Z,17.65
2022-10-30T14:09:56.094Z,18.64
2022-10-30T14:12:51.587Z,20.18
2022-10-30T14:15:33.032Z,21.82
2022-10-30T14:18:28.253Z,22.50
2022-10-30T14:20:59.495Z,22.61
2022-10-30T14:23:35.168Z,22.15
2022-10-30T14:26:22.731Z,20.97
2022-10-30T14:28:56.384Z,19.85
2022-10-30T14:31:36.707Z,19.19
2022-10-30T14:34:06.349Z,18.44
2022-10-30T14:36:51.016Z,18.36
2022-10-30T14:39:31.281Z,17.96
2022-10-30T14:42:17.381Z,17.88
2022-10-30T14:45:01.900Z,17.69
2022-10-30T14:47:54.406Z,17.53
2022-10-30T14:50:48.118Z,17.46
2022-10-30T14:53:35.924Z,17.57
2022-10-30T14:56:12.240Z,17.49
2022-10-30T14:58:41.980Z,17.46
2022-10-30T15:01:34.861Z,17.50
2022-10-30T15:04:21.939Z,17.35
2022-10-30T15:06:59.659Z,17.20
2022-10-30T15:09:49.103Z,17.02
2022-10-30T15:12:43.587Z,16.91
2022-10-30T15:15:16.411Z,16.80
2022-10-30T15:17:49.984Z,16.68
2022-10-30T15:20:23.007Z,16.53
2022-10-30T15:22:56.258Z,16.24
2022-10-30T15:25:29.242Z,15.99
2022-10-30T15:28:00.316Z,15.92
2022-10-30T15:30:30.296Z,15.86
2022-10-30T15:33:01.548Z,15.74
2022-10-30T15:35:31.322Z,15.58
2022-10-30T15:38:06.012Z,15.59
2022-10-30T15:40:36.540Z,15.47
2022-10-30T15:43:08.883Z,15.44
2022-10-30T15:45:40.852Z,15.36
2022-10-30T15:48:26.301Z,15.33
2022-10-30T15:51:01.609Z,15.32
2022-10-30T15:53:35.079Z,15.30
2022-10-30T15:56:04.837Z,15.12
2022-10-30T15:58:37.577Z,15.02
2022-10-30T16:01:06.915Z,14.98
2022-10-30T16:03:37.954Z,14.90
2022-10-30T16:06:14.748Z,14.83
2022-10-30T16:08:48.904Z,14.81
2022-10-30T16:11:18.481Z,14.70
2022-10-30T16:13:48.034Z,14.62
2022-10-30T16:16:22.961Z,14.65
2022-10-30T16:18:55.723Z,14.69
2022-10-30T16:21:29.691Z,14.68
2022-10-30T16:24:01.703Z,14.60
2022-10-30T16:26:33.973Z,14.58
2022-10-30T16:29:10.252Z,14.60
2022-10-30T16:31:40.578Z,14.56
2022-10-30T16:34:17.409Z,14.54
2022-10-30T16:36:47.066Z,14.49
2022-10-30T16:39:18.580Z,14.42
2022-10-30T16:41:48.187Z,14.39
2022-10-30T16:44:27.422Z,14.38
2022-10-30T16:46:59.613Z,14.32
2022-10-30T16:49:33.659Z,14.27
2022-10-30T16:52:06.714Z,14.34
2022-10-30T16:54:41.098Z,14.28
2022-10-30T16:57:17.801Z,14.25
2022-10-30T16:59:49.568Z,14.20
2022-10-30T17:02:22.536Z,14.23
2022-10-30T17:04:58.262Z,14.13
2022-10-30T17:07:27.950Z,14.12
2022-10-30T17:09:59.328Z,14.04
2022-10-30T17:12:30.480Z,14.02
2022-10-30T17:15:12.749Z,14.00
2022-10-30T17:17:43.305Z,13.80
2022-10-30T17:20:31.098Z,13.78
2022-10-30T17:23:14.766Z,13.79
2022-10-30T17:26:13.354Z,13.69
2022-10-30T17:28:43.401Z,13.60
2022-10-30T17:31:31.233Z,13.51
2022-10-30T17:34:18.867Z,13.44
2022-10-30T17:36:50.885Z,13.41
2022-10-30T17:39:20.238Z,13.22
2022-10-30T17:41:49.915Z,13.31
2022-10-30T17:44:22.948Z,13.07
2022-10-30T17:46:52.755Z,12.99
2022-10-30T17:49:27.936Z,13.01
2022-10-30T17:51:59.210Z,12.74
2022-10-30T17:54:28.514Z,12.89
2022-10-30T17:56:58.940Z,12.80
2022-10-30T17:59:28.182Z,12.78
2022-10-30T18:01:57.856Z,12.62
2022-10-30T18:04:27.183Z,12.60
2022-10-30T18:06:58.398Z,12.54
2022-10-30T18:09:27.820Z,12.43
2022-10-30T18:11:57.221Z,12.53
2022-10-30T18:14:26.630Z,12.55
2022-10-30T18:16:55.990Z,12.48
2022-10-30T18:19:25.698Z,12.41
2022-10-30T18:21:55.017Z,12.20
2022-10-30T18:24:26.450Z,12.18
2022-10-30T18:26:56.931Z,12.14
2022-10-30T18:29:26.386Z,12.01
2022-10-30T18:31:55.723Z,12.08
2022-10-30T18:34:25.411Z,12.09
2022-10-30T18:36:54.621Z,11.90
2022-10-30T18:39:25.732Z,11.93
2022-10-30T18:41:56.467Z,11.88
2022-10-30T18:44:25.962Z,11.80
2022-10-30T18:47:00.078Z,11.83
2022-10-30T18:49:33.477Z,11.83
2022-10-30T18:52:03.029Z,11.62
2022-10-30T18:54:33.862Z,11.57
2022-10-30T18:57:03.543Z,11.62
2022-10-30T18:59:34.772Z,11.55
2022-10-30T19:02:04.306Z,11.48
2022-10-30T19:04:33.882Z,11.51
2022-10-30T19:07:03.998Z,11.54
2022-10-30T19:09:34.971Z,11.58
2022-10-30T19:12:04.252Z,11.62
2022-10-30T19:14:33.853Z,11.61
2022-10-30T19:17:03.230Z,11.51
2022-10-30T19:19:32.552Z,11.56
2022-10-30T19:22:02.034Z,11.44
2022-10-30T19:24:31.616Z,11.44
2022-10-30T19:27:03.485Z,11.53
2022-10-30T19:29:32.979Z,11.51
2022-10-30T19:32:02.487Z,11.34
2022-10-30T19:34:31.676Z,11.29
2022-10-30T19:37:01.329Z,11.27
2022-10-30T19:39:32.938Z,11.32
2022-10-30T19:42:04.165Z,11.28
2022-10-30T19:44:33.449Z,11.11
2022-10-30T19:47:03.032Z,11.04
2022-10-30T19:49:34.635Z,10.97
2022-10-30T19:52:04.249Z,11.04
2022-10-30T19:54:33.532Z,11.00
2022-10-30T19:57:04.467Z,10.81
2022-10-30T19:59:34.090Z,10.89
2022-10-30T20:02:03.587Z,10.89
2022-10-30T20:04:33.159Z,10.80
2022-10-30T20:07:02.853Z,10.83
2022-10-30T20:09:32.478Z,10.76
2022-10-30T20:12:03.191Z,10.59
2022-10-30T20:14:32.765Z,10.64
2022-10-30T20:17:02.234Z,10.64
2022-10-30T20:19:33.071Z,10.70
2022-10-30T20:22:02.570Z,10.63
2022-10-30T20:24:31.796Z,10.57
2022-10-30T20:27:01.161Z,10.49
2022-10-30T20:29:32.012Z,10.55
2022-10-30T20:32:01.204Z,10.49
2022-10-30T20:34:31.071Z,10.44
2022-10-30T20:37:00.304Z,10.43
2022-10-30T20:39:29.778Z,10.44
2022-10-30T20:41:59.241Z,10.48
2022-10-30T20:44:28.643Z,10.45
2022-10-30T20:46:59.342Z,10.38
2022-10-30T20:49:30.423Z,10.44
2022-10-30T20:51:59.683Z,10.32
2022-10-30T20:54:29.073Z,10.34
2022-10-30T20:56:58.415Z,10.21
2022-10-30T20:59:27.687Z,10.16
2022-10-30T21:01:58.691Z,10.22
2022-10-30T21:04:28.051Z,10.32
2022-10-30T21:06:57.728Z,10.33
2022-10-30T21:09:27.141Z,10.34
2022-10-30T21:11:56.552Z,10.38
2022-10-30T21:14:25.801Z,10.40
2022-10-30T21:16:55.028Z,10.45
2022-10-30T21:19:26.762Z,10.47
2022-10-30T21:21:58.459Z,10.49
2022-10-30T21:24:28.576Z,10.46
2022-10-30T21:26:57.958Z,10.39
2022-10-30T21:29:29.006Z,10.42
2022-10-30T21:32:02.120Z,10.45
2022-10-30T21:34:32.755Z,10.43
2022-10-30T21:37:02.199Z,10.37
2022-10-30T21:39:32.293Z,10.38
2022-10-30T21:42:01.686Z,10.38
2022-10-30T21:44:30.857Z,10.34
2022-10-30T21:47:00.158Z,10.35
2022-10-30T21:49:31.148Z,10.29
2022-10-30T21:52:00.468Z,10.28
2022-10-30T21:54:29.889Z,10.30
2022-10-30T21:56:59.222Z,10.28
2022-10-30T21:59:28.480Z,10.14
2022-10-30T22:01:57.965Z,10.24
2022-10-30T22:04:27.516Z,10.26
2022-10-30T22:06:58.180Z,9.99
2022-10-30T22:09:27.755Z,10.05
2022-10-30T22:11:57.124Z,10.24
2022-10-30T22:14:27.077Z,10.31
2022-10-30T22:16:56.532Z,10.36
2022-10-30T22:19:25.823Z,10.22
2022-10-30T22:21:55.126Z,10.36
2022-10-30T22:24:25.976Z,10.37
2022-10-30T22:26:55.302Z,10.30
2022-10-30T22:29:24.575Z,10.29
2022-10-30T22:32:03.264Z,10.32
2022-10-30T22:34:32.496Z,10.33
2022-10-30T22:37:01.961Z,10.50
2022-10-30T22:39:32.632Z,10.60
2022-10-30T22:42:07.646Z,10.72
2022-10-30T22:44:37.016Z,10.73
2022-10-30T22:47:06.514Z,10.82
2022-10-30T22:49:35.729Z,10.90
2022-10-30T22:52:05.291Z,10.92
2022-10-30T22:54:36.098Z,10.86
2022-10-30T22:57:05.397Z,10.84
2022-10-30T22:59:34.584Z,10.86
2022-10-30T23:02:04.129Z,10.93
2022-10-30T23:04:33.542Z,10.91
2022-10-30T23:07:09.023Z,10.72
2022-10-30T23:09:39.675Z,10.71
2022-10-30T23:12:09.265Z,10.71
2022-10-30T23:14:38.576Z,10.67
2022-10-30T23:17:08.133Z,10.66
2022-10-30T23:19:37.290Z,10.64
2022-10-30T23:22:06.817Z,10.57
2022-10-30T23:24:36.025Z,10.47
2022-10-30T23:27:06.798Z,10.51
2022-10-30T23:29:36.066Z,10.41
2022-10-30T23:32:05.734Z,10.18
2022-10-30T23:34:34.946Z,10.19
2022-10-30T23:37:04.290Z,10.26
2022-10-30T23:39:33.492Z,10.20
2022-10-30T23:42:02.889Z,10.19
2022-10-30T23:44:33.643Z,10.12
2022-10-30T23:47:03.190Z,10.11
2022-10-30T23:49:34.151Z,10.15
2022-10-30T23:52:03.789Z,10.15
2022-10-30T23:54:33.126Z,9.94
2022-10-30T23:57:02.661Z,10.08
2022-10-30T23:59:33.231Z,10.17
